Time;durP1;ratioP1;P1;durP2;ratioP2;P2;SDS_P1;SDS_P2;PMS_P1;PMS_P2;Temp;Humidity;BMP_temperature;BMP_pressure;BME280_temperature;BME280_humidity;BME280_pressure;Samples;Min_cycle;Max_cycle;Signal;HPM_P1;HPM_P2
2022/01/04 06:00:51;;;;;;;1.33;1.20;;;11.50;97.20;;;;;;1689646;29;20208;-84
2022/01/04 06:01:42;;;;;;;1.20;1.05;;;11.50;97.20;;;;;;1690032;29;20215;-82
2022/01/04 06:02:33;;;;;;;1.37;1.27;;;11.50;97.20;;;;;;1689830;29;20292;-84
2022/01/04 06:03:24;;;;;;;1.60;1.45;;;11.50;97.20;;;;;;1689079;29;20231;-82
2022/01/04 06:04:17;;;;;;;2.70;1.40;;;11.50;97.20;;;;;;1689524;29;20227;-83
2022/01/04 06:05:09;;;;;;;1.85;1.30;;;11.50;97.20;;;;;;1689830;29;20204;-82
2022/01/04 06:06:00;;;;;;;1.80;1.20;;;11.50;97.20;;;;;;1689591;29;20589;-83
2022/01/04 06:06:51;;;;;;;1.58;1.33;;;11.50;97.20;;;;;;1689827;29;20209;-83
2022/01/04 06:07:43;;;;;;;2.47;1.10;;;11.50;97.20;;;;;;1689397;29;20213;-83
2022/01/04 06:08:37;;;;;;;1.08;0.98;;;11.50;97.20;;;;;;1689580;29;20217;-82
2022/01/04 06:09:39;;;;;;;1.63;1.20;;;11.50;97.20;;;;;;1688865;29;20224;-82
2022/01/04 06:10:37;;;;;;;1.50;1.38;;;11.50;97.20;;;;;;1689699;29;20723;-83
2022/01/04 06:11:42;;;;;;;1.35;1.23;;;11.50;97.20;;;;;;1689924;29;20617;-83
2022/01/04 06:14:52;;;;;;;1.38;1.25;;;11.50;97.20;;;;;;1689902;29;20638;-83
2022/01/04 06:15:44;;;;;;;1.25;1.08;;;11.50;97.20;;;;;;1689651;29;20263;-84
2022/01/04 06:16:36;;;;;;;1.90;1.08;;;11.50;97.20;;;;;;1689983;29;20215;-82
2022/01/04 06:17:29;;;;;;;1.92;1.00;;;11.50;97.20;;;;;;1689559;29;20215;-82
2022/01/04 06:18:20;;;;;;;2.55;1.23;;;11.50;97.20;;;;;;1689413;29;20212;-83
2022/01/04 06:19:12;;;;;;;1.70;1.20;;;11.50;97.20;;;;;;1689322;29;20295;-84
2022/01/04 06:20:07;;;;;;;1.40;1.20;;;11.50;97.20;;;;;;1689895;29;20244;-82
2022/01/04 06:20:57;;;;;;;1.30;1.20;;;11.50;97.20;;;;;;1689723;29;20224;-83
2022/01/04 06:21:49;;;;;;;2.67;1.10;;;11.50;97.20;;;;;;1689870;29;20264;-82
2022/01/04 06:22:40;;;;;;;5.00;1.20;;;11.50;97.20;;;;;;1689910;29;20205;-82
2022/01/04 06:23:32;;;;;;;1.30;1.20;;;11.50;97.20;;;;;;1689494;29;20203;-83
2022/01/04 06:24:23;;;;;;;1.38;1.27;;;11.50;97.20;;;;;;1690017;29;20232;-82
2022/01/04 06:25:17;;;;;;;2.03;1.43;;;11.50;97.20;;;;;;1689287;29;20218;-83
2022/01/04 06:26:07;;;;;;;1.10;1.00;;;11.50;97.20;;;;;;1689855;29;20244;-83
2022/01/04 06:27:00;;;;;;;1.73;1.50;;;11.40;97.20;;;;;;1689743;29;20208;-83
2022/01/04 06:27:52;;;;;;;1.40;0.95;;;11.40;97.20;;;;;;1689283;29;20209;-83
2022/01/04 06:28:44;;;;;;;1.83;1.30;;;11.40;97.20;;;;;;1689841;29;20222;-84
2022/01/04 06:29:35;;;;;;;1.08;0.88;;;11.40;97.20;;;;;;1689554;29;20208;-83
2022/01/04 06:30:27;;;;;;;1.90;1.10;;;11.40;97.20;;;;;;1689355;29;20233;-82
2022/01/04 06:31:18;;;;;;;1.50;1.30;;;11.40;97.20;;;;;;1689950;29;20224;-82
2022/01/04 06:32:12;;;;;;;1.60;1.50;;;11.50;97.20;;;;;;1689504;29;20279;-83
2022/01/04 06:33:03;;;;;;;1.10;1.00;;;11.40;97.20;;;;;;1689605;29;20212;-83
2022/01/04 06:33:55;;;;;;;1.20;1.10;;;11.40;97.20;;;;;;1689404;29;20200;-83
2022/01/04 06:34:45;;;;;;;1.98;1.20;;;11.40;97.20;;;;;;1689517;29;20231;-84
2022/01/04 06:35:38;;;;;;;1.23;1.10;;;11.40;97.20;;;;;;1689308;29;20795;-82
2022/01/04 06:36:29;;;;;;;1.33;1.05;;;11.40;97.20;;;;;;1689701;29;20263;-83
2022/01/04 06:37:20;;;;;;;1.33;1.23;;;11.40;97.20;;;;;;1689384;29;20255;-82
2022/01/04 06:38:11;;;;;;;2.20;1.25;;;11.40;97.20;;;;;;1689595;29;20654;-82
2022/01/04 06:39:03;;;;;;;1.90;1.20;;;11.40;97.20;;;;;;1689449;29;20621;-82
2022/01/04 06:39:54;;;;;;;2.22;1.10;;;11.40;97.20;;;;;;1689350;29;20204;-83
2022/01/04 06:40:46;;;;;;;4.63;1.20;;;11.50;97.20;;;;;;1689433;29;20234;-82
2022/01/04 06:41:37;;;;;;;1.65;0.90;;;11.50;97.20;;;;;;1689820;29;20211;-82
2022/01/04 06:42:28;;;;;;;1.50;1.20;;;11.50;97.20;;;;;;1689504;29;20201;-82
2022/01/04 06:43:19;;;;;;;1.30;1.13;;;11.50;97.20;;;;;;1689623;29;20209;-83
2022/01/04 06:44:11;;;;;;;1.63;1.17;;;11.50;97.20;;;;;;1689098;29;20200;-83
2022/01/04 06:45:02;;;;;;;3.13;1.17;;;11.40;97.20;;;;;;1689658;29;20585;-82
2022/01/04 06:45:53;;;;;;;1.17;1.03;;;11.40;97.20;;;;;;1689391;29;20196;-83
2022/01/04 06:46:45;;;;;;;1.10;1.00;;;11.40;97.20;;;;;;1689446;29;20490;-83
2022/01/04 06:47:38;;;;;;;1.38;0.90;;;11.40;97.20;;;;;;1689237;29;20248;-83
2022/01/04 06:48:28;;;;;;;1.52;1.05;;;11.40;97.20;;;;;;1689759;29;20208;-82
2022/01/04 06:49:21;;;;;;;1.40;1.00;;;11.40;97.20;;;;;;1689157;29;20295;-83
2022/01/04 06:50:15;;;;;;;1.38;1.10;;;11.40;97.20;;;;;;1689572;29;20212;-83
2022/01/04 06:51:06;;;;;;;1.80;0.88;;;11.40;97.20;;;;;;1689410;29;20204;-82
2022/01/04 06:51:57;;;;;;;1.15;0.88;;;11.40;97.20;;;;;;1689811;29;20697;-82
2022/01/04 06:52:49;;;;;;;1.50;1.20;;;11.40;97.20;;;;;;1689437;29;20594;-83
2022/01/04 06:53:40;;;;;;;1.55;1.00;;;11.40;97.20;;;;;;1689790;29;20464;-83
2022/01/04 06:54:31;;;;;;;0.90;0.80;;;11.40;97.20;;;;;;1689425;29;20211;-82
2022/01/04 06:55:22;;;;;;;2.42;1.17;;;11.40;97.20;;;;;;1689315;29;20259;-84
2022/01/04 06:56:14;;;;;;;1.33;1.20;;;11.40;97.20;;;;;;1689214;29;20244;-82
2022/01/04 06:57:05;;;;;;;1.63;1.20;;;11.40;97.20;;;;;;1689587;29;20472;-83
2022/01/04 06:57:56;;;;;;;1.00;0.90;;;11.40;97.20;;;;;;1689229;29;20204;-83
2022/01/04 06:58:47;;;;;;;1.40;1.20;;;11.40;97.20;;;;;;1689207;29;20236;-82
2022/01/04 06:59:39;;;;;;;2.50;1.10;;;11.50;97.20;;;;;;1689071;29;20396;-82
2022/01/04 07:00:30;;;;;;;1.10;0.98;;;11.50;97.20;;;;;;1689255;29;20239;-82
2022/01/04 07:01:22;;;;;;;1.47;1.37;;;11.50;97.20;;;;;;1689214;29;20207;-84
2022/01/04 07:02:13;;;;;;;1.90;0.93;;;11.50;97.20;;;;;;1689760;29;20208;-83
2022/01/04 07:03:06;;;;;;;0.90;0.70;;;11.50;97.20;;;;;;1689544;29;20247;-82
2022/01/04 07:03:56;;;;;;;1.20;1.10;;;11.50;97.20;;;;;;1689742;29;20235;-83
2022/01/04 07:04:48;;;;;;;1.90;1.80;;;11.50;97.20;;;;;;1689178;29;20204;-82
2022/01/04 07:05:39;;;;;;;1.65;1.13;;;11.50;97.20;;;;;;1689432;29;20256;-83
2022/01/04 07:06:31;;;;;;;1.47;1.20;;;11.50;97.20;;;;;;1689545;29;20224;-82
2022/01/04 07:07:23;;;;;;;1.80;1.35;;;11.50;97.20;;;;;;1689447;29;20568;-82
2022/01/04 07:08:15;;;;;;;1.30;1.15;;;11.50;97.20;;;;;;1689147;29;20656;-82
2022/01/04 07:09:07;;;;;;;2.08;1.70;;;11.50;97.20;;;;;;1689363;29;20243;-82
2022/01/04 07:09:59;;;;;;;1.58;1.48;;;11.50;97.20;;;;;;1690506;29;20577;-82
2022/01/04 07:10:50;;;;;;;1.10;1.00;;;11.50;97.20;;;;;;1691031;29;20746;-82
2022/01/04 07:11:41;;;;;;;1.20;1.00;;;11.50;97.20;;;;;;1690858;29;20215;-83
2022/01/04 07:12:32;;;;;;;1.10;0.90;;;11.50;97.20;;;;;;1690808;29;20672;-83
2022/01/04 07:13:24;;;;;;;1.80;1.00;;;11.50;97.20;;;;;;1690569;29;20211;-83
2022/01/04 07:14:15;;;;;;;1.88;0.88;;;11.50;97.20;;;;;;1691011;29;20209;-84
2022/01/04 07:15:08;;;;;;;2.40;1.40;;;11.50;97.20;;;;;;1690636;29;20283;-83
2022/01/04 07:15:59;;;;;;;1.10;1.00;;;11.50;97.20;;;;;;1690913;29;20271;-83
2022/01/04 07:16:50;;;;;;;1.00;0.90;;;11.50;97.20;;;;;;1690561;29;20200;-82
2022/01/04 07:17:41;;;;;;;2.05;1.13;;;11.50;97.20;;;;;;1690377;29;20212;-83
2022/01/04 07:18:35;;;;;;;1.73;1.00;;;11.50;97.20;;;;;;1690610;29;20747;-83
2022/01/04 07:19:26;;;;;;;1.80;1.20;;;11.50;97.20;;;;;;1690415;29;20617;-83
2022/01/04 07:20:17;;;;;;;2.13;0.97;;;11.50;97.20;;;;;;1690379;29;20596;-83
2022/01/04 07:21:08;;;;;;;1.05;0.95;;;11.50;97.20;;;;;;1690611;29;20903;-83
2022/01/04 07:22:00;;;;;;;1.73;1.10;;;11.50;97.20;;;;;;1690842;29;20212;-83
2022/01/04 07:22:50;;;;;;;1.50;0.93;;;11.50;97.20;;;;;;1690754;29;20216;-83
2022/01/04 07:23:43;;;;;;;1.13;0.90;;;11.50;97.20;;;;;;1690695;29;20291;-84
2022/01/04 07:24:34;;;;;;;1.55;0.95;;;11.50;97.20;;;;;;1690605;29;20212;-84
2022/01/04 07:25:26;;;;;;;2.35;1.30;;;11.50;97.20;;;;;;1690829;29;20200;-83
2022/01/04 07:26:17;;;;;;;3.25;1.60;;;11.50;97.20;;;;;;1690691;29;20247;-83
2022/01/04 07:27:09;;;;;;;1.35;1.25;;;11.50;97.20;;;;;;1690359;29;20192;-82
2022/01/04 07:28:00;;;;;;;1.30;1.20;;;11.50;97.20;;;;;;1690615;29;20680;-85
2022/01/04 07:28:52;;;;;;;1.20;1.07;;;11.50;97.20;;;;;;1690792;29;20219;-82
2022/01/04 07:29:43;;;;;;;1.63;1.10;;;11.50;97.20;;;;;;1690635;29;20211;-83
2022/01/04 07:30:34;;;;;;;1.30;0.90;;;11.50;97.20;;;;;;1690248;29;20229;-84
2022/01/04 07:31:25;;;;;;;1.55;1.40;;;11.50;97.20;;;;;;1690693;29;20483;-82
2022/01/04 07:32:17;;;;;;;1.50;1.00;;;11.50;97.20;;;;;;1691224;29;20208;-84
2022/01/04 07:33:08;;;;;;;1.00;0.90;;;11.50;97.20;;;;;;1690998;29;20201;-83
2022/01/04 07:34:01;;;;;;;1.57;1.23;;;11.50;97.20;;;;;;1690601;29;20204;-83
2022/01/04 07:34:51;;;;;;;1.20;1.10;;;11.50;97.20;;;;;;1690662;29;20212;-84
2022/01/04 07:35:44;;;;;;;1.00;0.90;;;11.50;97.20;;;;;;1690691;29;20223;-83
2022/01/04 07:36:34;;;;;;;1.17;1.08;;;11.50;97.20;;;;;;1690462;29;20527;-82
2022/01/04 07:37:26;;;;;;;2.60;1.00;;;11.50;97.20;;;;;;1690581;29;20211;-82
2022/01/04 07:38:17;;;;;;;1.80;1.08;;;11.50;97.20;;;;;;1690431;29;20239;-82
2022/01/04 07:39:08;;;;;;;2.27;1.00;;;11.60;97.20;;;;;;1690628;29;20205;-84
2022/01/04 07:39:59;;;;;;;1.45;1.20;;;11.60;97.20;;;;;;1690442;29;20201;-82
2022/01/04 07:40:51;;;;;;;1.40;1.00;;;11.60;97.20;;;;;;1690407;29;20225;-83
2022/01/04 07:41:42;;;;;;;1.20;1.10;;;11.60;97.20;;;;;;1690911;29;20236;-84
2022/01/04 07:42:33;;;;;;;1.57;1.00;;;11.60;97.20;;;;;;1690551;29;20209;-82
2022/01/04 07:43:24;;;;;;;1.35;0.93;;;11.60;97.20;;;;;;1690663;29;20243;-83
2022/01/04 07:44:16;;;;;;;3.47;0.90;;;11.60;97.20;;;;;;1690440;29;20298;-82
2022/01/04 07:45:08;;;;;;;1.60;1.10;;;11.60;97.20;;;;;;1690715;29;20205;-83
2022/01/04 07:45:59;;;;;;;2.15;1.00;;;11.60;97.20;;;;;;1690461;29;20209;-82
2022/01/04 07:46:50;;;;;;;1.15;0.90;;;11.60;97.20;;;;;;1690573;29;20264;-83
2022/01/04 07:47:42;;;;;;;2.63;1.17;;;11.60;97.20;;;;;;1690551;29;20204;-83
2022/01/04 07:48:33;;;;;;;1.00;0.90;;;11.60;97.20;;;;;;1690525;29;20236;-83
2022/01/04 07:49:26;;;;;;;1.77;1.33;;;11.60;97.20;;;;;;1690274;29;20211;-83
2022/01/04 07:50:17;;;;;;;1.20;1.10;;;11.60;97.20;;;;;;1690720;29;20834;-83
2022/01/04 07:51:09;;;;;;;2.75;1.08;;;11.70;97.20;;;;;;1690254;29;20550;-82
2022/01/04 07:52:00;;;;;;;1.85;1.63;;;11.70;97.20;;;;;;1690269;29;20267;-84
2022/01/04 07:52:52;;;;;;;1.37;1.10;;;11.70;97.20;;;;;;1690495;29;20205;-82
2022/01/04 07:53:43;;;;;;;1.10;1.00;;;11.70;97.20;;;;;;1690691;29;20212;-82
2022/01/04 07:54:34;;;;;;;1.17;1.03;;;11.70;97.20;;;;;;1690424;29;20204;-82
2022/01/04 07:55:25;;;;;;;1.95;1.50;;;11.70;97.20;;;;;;1690306;29;20692;-82
2022/01/04 07:56:17;;;;;;;2.07;1.60;;;11.70;97.20;;;;;;1690775;29;20684;-83
2022/01/04 07:57:08;;;;;;;1.38;1.10;;;11.80;97.20;;;;;;1690505;29;20832;-82
2022/01/04 07:58:00;;;;;;;1.30;1.20;;;11.80;97.20;;;;;;1690225;29;20296;-83
2022/01/04 07:58:51;;;;;;;2.45;1.00;;;11.80;97.20;;;;;;1690629;29;20208;-83
2022/01/04 07:59:42;;;;;;;1.37;1.27;;;11.80;97.20;;;;;;1690588;29;20319;-82
2022/01/04 08:00:33;;;;;;;3.10;1.40;;;11.80;97.20;;;;;;1690334;29;20484;-82
2022/01/04 08:01:25;;;;;;;1.40;1.10;;;11.80;97.20;;;;;;1691331;29;20204;-82
2022/01/04 08:02:16;;;;;;;1.15;0.88;;;11.90;97.20;;;;;;1691521;29;20463;-83
2022/01/04 08:03:10;;;;;;;3.00;1.17;;;11.90;97.20;;;;;;1691192;29;20227;-83
2022/01/04 08:04:03;;;;;;;1.33;0.98;;;11.90;97.20;;;;;;1691347;29;20453;-83
2022/01/04 08:04:56;;;;;;;2.65;0.90;;;11.90;97.20;;;;;;1691692;29;20232;-83
2022/01/04 08:05:47;;;;;;;1.13;1.02;;;11.90;97.20;;;;;;1691359;29;20268;-82
2022/01/04 08:06:40;;;;;;;1.40;1.20;;;11.90;97.20;;;;;;1691472;29;20201;-83
2022/01/04 08:07:30;;;;;;;2.05;1.10;;;12.00;97.20;;;;;;1689904;29;20503;-87
2022/01/04 08:08:22;;;;;;;1.53;1.27;;;12.00;97.20;;;;;;1690410;29;20272;-86
2022/01/04 08:09:13;;;;;;;1.23;0.98;;;12.00;97.20;;;;;;1691201;29;20243;-86
2022/01/04 08:10:05;;;;;;;1.63;1.03;;;12.00;97.20;;;;;;1690943;29;20204;-86
2022/01/04 08:10:56;;;;;;;2.03;1.00;;;12.00;97.20;;;;;;1690460;29;20670;-86
2022/01/04 08:11:48;;;;;;;1.57;1.03;;;12.00;97.20;;;;;;1690208;29;20212;-87
2022/01/04 08:12:40;;;;;;;1.55;0.82;;;12.10;97.20;;;;;;1688877;29;20213;-86
2022/01/04 08:13:31;;;;;;;1.58;1.00;;;12.10;97.20;;;;;;1689418;29;20212;-84
2022/01/04 08:14:22;;;;;;;1.20;1.00;;;12.10;97.20;;;;;;1690324;29;20209;-85
2022/01/04 08:15:14;;;;;;;1.17;0.97;;;12.10;97.20;;;;;;1691098;29;20208;-86
2022/01/04 08:16:05;;;;;;;1.42;1.00;;;12.10;97.20;;;;;;1690543;29;20217;-87
2022/01/04 08:16:56;;;;;;;1.20;1.10;;;12.10;97.20;;;;;;1691386;29;20208;-86
2022/01/04 08:17:47;;;;;;;1.30;1.20;;;12.10;97.20;;;;;;1690996;29;20255;-85
2022/01/04 08:18:39;;;;;;;1.70;1.00;;;12.10;97.20;;;;;;1691185;29;20204;-85
2022/01/04 08:19:30;;;;;;;1.25;1.00;;;12.20;97.20;;;;;;1690648;29;20460;-85
2022/01/04 08:20:23;;;;;;;4.10;1.10;;;12.20;97.20;;;;;;1691920;29;20268;-89
2022/01/04 08:21:14;;;;;;;1.83;1.27;;;12.20;97.20;;;;;;1692495;29;20212;-86
2022/01/04 08:22:05;;;;;;;1.17;1.03;;;12.20;97.20;;;;;;1691511;29;20235;-85
2022/01/04 08:22:57;;;;;;;1.10;0.90;;;12.20;97.20;;;;;;1690831;29;20449;-84
2022/01/04 08:23:48;;;;;;;2.15;1.05;;;12.20;97.20;;;;;;1690707;29;20256;-85
2022/01/04 08:24:39;;;;;;;2.10;1.20;;;12.20;97.20;;;;;;1691247;29;20703;-89
2022/01/04 08:25:31;;;;;;;1.60;1.20;;;12.20;97.20;;;;;;1691426;29;20623;-85
2022/01/04 08:26:24;;;;;;;1.40;1.10;;;12.20;97.20;;;;;;1691262;29;20237;-84
2022/01/04 08:27:15;;;;;;;1.10;0.95;;;12.20;97.20;;;;;;1691218;29;20209;-86
2022/01/04 08:28:07;;;;;;;1.70;1.30;;;12.20;97.20;;;;;;1690764;29;20204;-85
2022/01/04 08:28:58;;;;;;;4.18;1.38;;;12.20;97.20;;;;;;1690959;29;20204;-84
2022/01/04 08:29:49;;;;;;;2.30;1.00;;;12.20;97.20;;;;;;1690339;29;20197;-86
2022/01/04 08:30:42;;;;;;;1.40;0.98;;;12.20;97.20;;;;;;1691079;29;20244;-85
2022/01/04 08:31:33;;;;;;;1.83;1.10;;;12.30;97.20;;;;;;1691283;29;20253;-85
2022/01/04 08:32:25;;;;;;;2.43;1.20;;;12.30;97.20;;;;;;1690820;29;20197;-85
2022/01/04 08:33:16;;;;;;;2.03;1.25;;;12.30;97.20;;;;;;1691000;29;20201;-85
2022/01/04 08:34:07;;;;;;;1.03;0.93;;;12.30;97.20;;;;;;1691212;29;20204;-84
2022/01/04 08:34:59;;;;;;;1.80;1.00;;;12.30;97.20;;;;;;1690969;29;20204;-85
2022/01/04 08:35:52;;;;;;;0.98;0.88;;;12.30;97.20;;;;;;1691077;29;20291;-85
2022/01/04 08:36:43;;;;;;;1.80;1.00;;;12.30;97.20;;;;;;1690969;29;20225;-85
2022/01/04 08:37:35;;;;;;;1.07;0.80;;;12.30;97.20;;;;;;1690347;29;20212;-86
2022/01/04 08:38:26;;;;;;;2.00;0.90;;;12.30;97.20;;;;;;1690781;29;20208;-86
2022/01/04 08:39:18;;;;;;;1.60;1.00;;;12.30;97.20;;;;;;1690828;29;20235;-84
2022/01/04 08:40:09;;;;;;;2.47;1.10;;;12.40;97.20;;;;;;1691294;29;20645;-84
2022/01/04 08:41:01;;;;;;;1.33;1.00;;;12.40;97.20;;;;;;1691129;29;20251;-86
2022/01/04 08:41:54;;;;;;;1.58;0.90;;;12.40;97.20;;;;;;1691287;29;20669;-84
2022/01/04 08:42:46;;;;;;;1.10;1.00;;;12.40;97.20;;;;;;1690833;29;20216;-84
2022/01/04 08:43:37;;;;;;;1.58;1.08;;;12.40;97.20;;;;;;1691116;29;20216;-84
2022/01/04 08:44:29;;;;;;;1.43;0.93;;;12.40;97.20;;;;;;1690781;29;20209;-87
2022/01/04 08:45:23;;;;;;;1.10;0.90;;;12.40;97.20;;;;;;1690842;29;20228;-87
2022/01/04 08:46:14;;;;;;;1.48;1.20;;;12.40;97.20;;;;;;1690917;29;20291;-86
2022/01/04 08:47:07;;;;;;;1.90;1.00;;;12.40;97.20;;;;;;1690632;29;20274;-85
2022/01/04 08:47:59;;;;;;;0.90;0.80;;;12.50;97.20;;;;;;1690510;29;20838;-86
2022/01/04 08:48:50;;;;;;;1.10;1.00;;;12.50;97.20;;;;;;1690628;29;20232;-84
2022/01/04 08:49:42;;;;;;;1.52;1.10;;;12.50;97.20;;;;;;1690896;29;20658;-85
2022/01/04 08:50:34;;;;;;;1.55;1.08;;;12.50;97.20;;;;;;1690889;29;20264;-85
2022/01/04 08:51:27;;;;;;;0.90;0.80;;;12.50;97.20;;;;;;1690568;29;20231;-84
2022/01/04 08:52:18;;;;;;;1.60;0.90;;;12.50;97.20;;;;;;1690352;29;20209;-84
2022/01/04 08:53:12;;;;;;;3.50;0.80;;;12.50;97.20;;;;;;1690305;29;20247;-84
2022/01/04 08:54:04;;;;;;;2.65;1.00;;;12.50;97.20;;;;;;1690673;29;20283;-84
2022/01/04 08:54:56;;;;;;;1.10;0.90;;;12.50;97.20;;;;;;1690495;29;20232;-84
2022/01/04 08:55:47;;;;;;;1.88;1.10;;;12.50;97.20;;;;;;1690359;29;20694;-85
2022/01/04 08:56:39;;;;;;;1.63;0.80;;;12.50;97.20;;;;;;1690338;29;20205;-84
2022/01/04 08:57:30;;;;;;;2.10;1.13;;;12.50;97.20;;;;;;1690536;29;20208;-84
2022/01/04 08:58:21;;;;;;;1.03;0.93;;;12.60;97.20;;;;;;1689891;29;20197;-86
2022/01/04 08:59:13;;;;;;;2.13;1.70;;;12.60;97.20;;;;;;1690149;29;20495;-85
2022/01/04 09:00:07;;;;;;;1.52;1.02;;;12.60;97.20;;;;;;1690141;29;20209;-84
2022/01/04 09:00:59;;;;;;;1.77;1.00;;;12.60;97.20;;;;;;1690384;29;20747;-84
2022/01/04 09:01:51;;;;;;;1.83;1.20;;;12.60;97.20;;;;;;1690353;29;20208;-84
2022/01/04 09:02:43;;;;;;;1.13;1.00;;;12.60;97.20;;;;;;1691332;29;20228;-85
2022/01/04 09:03:35;;;;;;;1.70;1.10;;;12.60;97.20;;;;;;1693542;29;20696;-85
2022/01/04 09:04:26;;;;;;;1.40;0.85;;;12.60;97.20;;;;;;1691677;29;20208;-84
2022/01/04 09:05:18;;;;;;;2.65;0.80;;;12.60;97.20;;;;;;1690586;29;20208;-85
2022/01/04 09:06:09;;;;;;;1.50;0.95;;;12.60;97.20;;;;;;1690274;29;20220;-85
2022/01/04 09:07:04;;;;;;;1.38;0.90;;;12.60;97.20;;;;;;1690514;29;20219;-84
2022/01/04 09:07:55;;;;;;;1.30;1.20;;;12.70;97.20;;;;;;1690536;29;20247;-86
2022/01/04 09:08:46;;;;;;;1.07;0.97;;;12.70;97.20;;;;;;1690179;29;20208;-84
2022/01/04 09:09:37;;;;;;;1.30;1.00;;;12.70;97.20;;;;;;1690824;29;20209;-83
2022/01/04 09:10:29;;;;;;;1.50;0.93;;;12.70;97.20;;;;;;1690371;29;20263;-84
2022/01/04 09:11:21;;;;;;;1.35;0.80;;;12.70;97.20;;;;;;1690303;29;20625;-85
2022/01/04 09:12:14;;;;;;;1.65;1.23;;;12.70;97.20;;;;;;1690120;29;20231;-85
2022/01/04 09:13:10;;;;;;;1.98;1.00;;;12.70;97.20;;;;;;1690504;29;20212;-84
2022/01/04 09:14:19;;;;;;;1.60;1.05;;;12.70;97.20;;;;;;1690589;29;20212;-85
2022/01/04 09:18:46;;;;;;;1.00;0.80;;;12.80;97.20;;;;;;1690512;29;20208;-85
2022/01/04 09:19:37;;;;;;;1.13;1.00;;;12.80;97.20;;;;;;1689924;29;20212;-84
2022/01/04 09:20:28;;;;;;;1.77;0.93;;;12.80;97.20;;;;;;1689926;29;20724;-84
2022/01/04 09:21:21;;;;;;;1.42;1.00;;;12.80;97.20;;;;;;1690350;29;20247;-85
2022/01/04 09:22:14;;;;;;;1.45;0.80;;;12.80;97.20;;;;;;1690133;29;20193;-84
2022/01/04 09:23:05;;;;;;;0.90;0.75;;;12.80;97.20;;;;;;1690337;29;20236;-84
2022/01/04 09:23:59;;;;;;;1.97;1.00;;;12.80;97.20;;;;;;1689798;29;20215;-85
2022/01/04 09:24:50;;;;;;;1.10;1.00;;;12.80;97.20;;;;;;1687108;29;20450;-85
2022/01/04 09:25:42;;;;;;;1.20;0.83;;;12.80;97.20;;;;;;1683447;29;20209;-84
2022/01/04 09:26:33;;;;;;;1.52;1.23;;;12.80;97.20;;;;;;1683879;29;20212;-85
2022/01/04 09:27:24;;;;;;;1.10;1.00;;;12.80;97.20;;;;;;1683746;29;20201;-87
2022/01/04 09:28:16;;;;;;;2.38;1.08;;;12.80;97.20;;;;;;1683193;29;20213;-84
2022/01/04 09:29:09;;;;;;;1.52;1.13;;;12.80;97.20;;;;;;1683842;29;20216;-85
2022/01/04 09:30:03;;;;;;;1.42;0.90;;;12.80;97.20;;;;;;1686073;29;20242;-85
2022/01/04 09:30:57;;;;;;;1.40;1.13;;;12.80;97.20;;;;;;1683728;29;20356;-84
2022/01/04 09:31:49;;;;;;;2.17;0.80;;;12.80;97.20;;;;;;1684906;29;20213;-85
2022/01/04 09:32:41;;;;;;;1.27;1.17;;;12.80;97.20;;;;;;1689677;29;20291;-84
2022/01/04 09:33:32;;;;;;;2.55;1.00;;;12.80;97.20;;;;;;1690298;29;20219;-84
2022/01/04 09:34:24;;;;;;;1.08;0.98;;;12.80;97.20;;;;;;1690367;29;20204;-84
2022/01/04 09:35:16;;;;;;;3.78;1.10;;;12.80;97.20;;;;;;1691054;29;20216;-84
2022/01/04 09:36:08;;;;;;;1.60;1.30;;;12.80;97.20;;;;;;1691709;29;20212;-83
2022/01/04 09:36:59;;;;;;;2.65;0.90;;;12.80;97.20;;;;;;1692266;29;20257;-83
2022/01/04 09:37:51;;;;;;;1.15;0.95;;;12.80;97.20;;;;;;1690144;29;20225;-83
2022/01/04 09:38:43;;;;;;;1.10;1.00;;;12.80;97.20;;;;;;1690211;29;20247;-84
2022/01/04 09:39:34;;;;;;;1.20;1.05;;;12.80;97.20;;;;;;1690424;29;20262;-83
2022/01/04 09:40:26;;;;;;;1.27;1.00;;;12.80;97.20;;;;;;1689909;29;20196;-83
2022/01/04 09:41:16;;;;;;;1.77;1.00;;;12.70;97.20;;;;;;1690275;29;20204;-84
2022/01/04 09:42:08;;;;;;;1.40;0.90;;;12.80;97.20;;;;;;1690169;29;20192;-83
2022/01/04 09:43:00;;;;;;;1.27;0.90;;;12.70;97.20;;;;;;1690212;29;20209;-84
2022/01/04 09:43:52;;;;;;;1.38;0.80;;;12.70;97.20;;;;;;1690200;29;20212;-83
2022/01/04 09:44:43;;;;;;;5.88;1.10;;;12.70;97.20;;;;;;1687600;29;20217;-83
2022/01/04 09:45:36;;;;;;;1.90;1.10;;;12.70;97.20;;;;;;1690195;29;20216;-84
2022/01/04 09:46:27;;;;;;;1.63;0.95;;;12.70;97.20;;;;;;1690527;29;20243;-83
2022/01/04 09:47:19;;;;;;;1.40;1.00;;;12.70;97.20;;;;;;1690190;29;20193;-83
2022/01/04 09:48:10;;;;;;;1.60;1.15;;;12.70;97.20;;;;;;1690398;29;20577;-83
2022/01/04 09:49:01;;;;;;;1.30;1.10;;;12.70;97.20;;;;;;1689602;29;20200;-83
2022/01/04 09:49:52;;;;;;;1.00;0.90;;;12.70;97.20;;;;;;1690052;29;20208;-84
2022/01/04 09:50:46;;;;;;;1.20;1.10;;;12.70;97.20;;;;;;1694323;29;20699;-83
2022/01/04 09:51:39;;;;;;;1.33;1.23;;;12.70;97.20;;;;;;1697075;29;20687;-83
2022/01/04 09:52:31;;;;;;;2.28;1.05;;;12.70;97.20;;;;;;1696413;29;20261;-84
2022/01/04 09:53:24;;;;;;;1.25;1.00;;;12.70;97.20;;;;;;1696585;29;20402;-83
2022/01/04 09:54:20;;;;;;;2.72;1.35;;;12.70;97.20;;;;;;1696431;29;20755;-83
2022/01/04 09:55:12;;;;;;;1.45;1.02;;;12.70;97.20;;;;;;1696938;29;20212;-83
2022/01/04 09:56:05;;;;;;;1.52;1.10;;;12.70;97.20;;;;;;1696780;29;20204;-83
2022/01/04 09:56:55;;;;;;;2.08;1.02;;;12.70;97.20;;;;;;1696261;29;20211;-82
2022/01/04 09:57:48;;;;;;;2.30;1.10;;;12.70;97.20;;;;;;1696250;29;20231;-84
2022/01/04 09:58:39;;;;;;;1.30;1.20;;;12.70;97.20;;;;;;1696687;29;20456;-84
2022/01/04 09:59:30;;;;;;;1.70;1.13;;;12.70;97.20;;;;;;1696228;29;20275;-82
2022/01/04 10:00:21;;;;;;;1.80;1.20;;;12.70;97.20;;;;;;1691315;29;20723;-83
2022/01/04 10:01:22;;;;;;;1.50;1.40;;;12.70;97.20;;;;;;1690438;29;20657;-83
2022/01/04 10:02:15;;;;;;;1.70;1.30;;;12.70;97.20;;;;;;1690304;29;20208;-82
2022/01/04 10:03:13;;;;;;;1.50;1.40;;;12.70;97.20;;;;;;1695012;29;20255;-84
2022/01/04 10:04:04;;;;;;;1.50;1.40;;;12.70;97.20;;;;;;1697148;29;20212;-84
2022/01/04 10:05:12;;;;;;;1.67;1.58;;;12.70;97.20;;;;;;1695852;29;20643;-85
2022/01/04 10:06:09;;;;;;;2.38;1.30;;;12.70;97.20;;;;;;1696934;29;20236;-84
2022/01/04 10:07:03;;;;;;;1.85;1.42;;;12.70;97.20;;;;;;1696617;29;20258;-84
2022/01/04 10:08:00;;;;;;;1.65;1.55;;;12.60;97.20;;;;;;1696327;29;20588;-83
2022/01/04 10:08:57;;;;;;;1.65;1.40;;;12.60;97.20;;;;;;1696798;29;20215;-83
2022/01/04 10:09:51;;;;;;;1.60;1.35;;;12.60;97.20;;;;;;1695672;29;20212;-84
2022/01/04 10:10:43;;;;;;;5.05;1.60;;;12.60;97.20;;;;;;1695905;29;20232;-83
2022/01/04 10:11:36;;;;;;;1.35;1.25;;;12.60;97.20;;;;;;1696926;29;20211;-83
2022/01/04 10:12:28;;;;;;;2.10;1.30;;;12.60;97.20;;;;;;1692330;29;20293;-83
2022/01/04 10:13:20;;;;;;;1.58;1.20;;;12.60;97.20;;;;;;1690401;29;20267;-85
2022/01/04 10:14:24;;;;;;;1.40;1.20;;;12.60;97.20;;;;;;1690380;29;20669;-83
2022/01/04 10:15:30;;;;;;;1.52;1.20;;;12.70;97.20;;;;;;1689536;29;20235;-83
2022/01/04 10:16:21;;;;;;;2.25;1.30;;;12.60;97.20;;;;;;1690391;29;20232;-83
2022/01/04 10:17:15;;;;;;;2.03;1.10;;;12.60;97.20;;;;;;1689478;29;20211;-83
2022/01/04 10:18:23;;;;;;;1.35;1.20;;;12.60;97.20;;;;;;1687215;29;20212;-85
2022/01/04 10:19:27;;;;;;;2.58;1.50;;;12.60;97.20;;;;;;1689466;29;20260;-84
2022/01/04 10:20:20;;;;;;;2.17;1.10;;;12.60;97.20;;;;;;1689141;29;20665;-84
2022/01/04 10:21:13;;;;;;;2.70;1.50;;;12.60;97.20;;;;;;1685305;29;20197;-85
2022/01/04 10:22:21;;;;;;;1.50;1.25;;;12.60;97.20;;;;;;1685563;29;20223;-84
2022/01/04 10:23:16;;;;;;;1.90;1.10;;;12.60;97.20;;;;;;1689701;29;20215;-85
2022/01/04 10:24:09;;;;;;;2.13;1.50;;;12.60;97.20;;;;;;1689825;29;20669;-84
2022/01/04 10:25:12;;;;;;;3.30;1.60;;;12.70;97.20;;;;;;1690756;29;20216;-85
2022/01/04 10:26:05;;;;;;;2.15;1.40;;;12.60;97.20;;;;;;1689337;29;20209;-85
2022/01/04 10:26:56;;;;;;;1.77;1.50;;;12.70;97.20;;;;;;1689571;29;20287;-84
2022/01/04 10:27:49;;;;;;;1.57;1.47;;;12.70;97.20;;;;;;1689596;29;20212;-83
2022/01/04 10:28:43;;;;;;;1.67;1.50;;;12.70;97.20;;;;;;1689915;29;20212;-84
2022/01/04 10:29:35;;;;;;;1.80;1.50;;;12.70;97.20;;;;;;1689584;29;20212;-84
2022/01/04 10:30:28;;;;;;;1.25;1.13;;;12.70;97.20;;;;;;1689987;29;20636;-84
2022/01/04 10:31:20;;;;;;;1.58;1.38;;;12.70;97.20;;;;;;1689868;29;20220;-84
2022/01/04 10:32:12;;;;;;;2.53;1.50;;;12.70;97.20;;;;;;1689301;29;20203;-82
2022/01/04 10:33:06;;;;;;;2.38;1.60;;;12.70;97.20;;;;;;1689729;29;20215;-83
2022/01/04 10:33:57;;;;;;;2.85;2.45;;;12.80;97.20;;;;;;1689142;29;20208;-84
2022/01/04 10:34:49;;;;;;;1.83;1.50;;;12.80;97.20;;;;;;1689049;29;20204;-84
2022/01/04 10:35:42;;;;;;;1.33;1.23;;;12.80;97.20;;;;;;1689107;29;20215;-84
2022/01/04 10:36:39;;;;;;;3.20;1.75;;;12.80;97.20;;;;;;1688975;29;20200;-84
2022/01/04 10:37:37;;;;;;;2.38;1.10;;;12.90;97.20;;;;;;1688997;29;20236;-85
2022/01/04 10:38:31;;;;;;;2.15;1.70;;;12.90;97.20;;;;;;1689117;29;20294;-84
2022/01/04 10:39:25;;;;;;;3.60;1.77;;;12.90;97.20;;;;;;1689027;29;20212;-85